createdAt,value
2022-08-20T00:00:39.366Z,32.9
2022-08-20T00:01:45.507Z,30.5
2022-08-20T00:02:51.642Z,32
2022-08-20T00:03:57.795Z,32
2022-08-20T00:05:03.934Z,32
2022-08-20T00:06:10.076Z,32
2022-08-20T00:07:16.220Z,32
2022-08-20T00:08:21.370Z,32
2022-08-20T00:09:27.529Z,31.2
2022-08-20T00:10:33.662Z,32.7
2022-08-20T00:11:39.806Z,32.7
2022-08-20T00:12:45.946Z,32.7
2022-08-20T00:13:52.088Z,32.7
2022-08-20T00:14:58.244Z,32.5
2022-08-20T00:16:04.385Z,31
2022-08-20T00:17:10.524Z,33.59
2022-08-20T00:18:16.676Z,33.59
2022-08-20T00:19:22.826Z,33.4
2022-08-20T00:20:28.956Z,32.9
2022-08-20T00:21:35.118Z,33.2
2022-08-20T00:22:40.268Z,33.2
2022-08-20T00:23:46.404Z,33.2
2022-08-20T00:24:52.543Z,33.2
2022-08-20T00:25:58.694Z,33.2
2022-08-20T00:27:04.832Z,33.2
2022-08-20T00:28:10.978Z,33.2
2022-08-20T00:29:17.124Z,33.2
2022-08-20T00:30:23.262Z,33.2
2022-08-20T00:31:29.408Z,33.2
2022-08-20T00:32:35.550Z,33.2
2022-08-20T00:33:41.699Z,33.2
2022-08-20T00:34:47.844Z,33.2
2022-08-20T00:35:53.995Z,33.2
2022-08-20T00:36:59.155Z,33.2
2022-08-20T00:38:05.293Z,33.2
2022-08-20T00:39:11.433Z,33.2
2022-08-20T00:40:17.580Z,33.2
2022-08-20T00:41:23.715Z,33.2
2022-08-20T00:42:29.873Z,33.2
2022-08-20T00:43:36.006Z,33.2
2022-08-20T00:44:42.155Z,33.2
2022-08-20T00:45:48.306Z,33.2
2022-08-20T00:46:54.437Z,33.2
2022-08-20T00:48:00.586Z,33.2
2022-08-20T00:49:06.736Z,33.2
2022-08-20T00:50:12.874Z,36.2
2022-08-20T00:51:18.030Z,36.2
2022-08-20T00:52:24.169Z,36.2
2022-08-20T00:53:30.324Z,36.2
2022-08-20T00:54:36.469Z,36.2
2022-08-20T00:55:42.621Z,36.2
2022-08-20T00:56:48.765Z,36.2
2022-08-20T00:57:54.921Z,36.2
2022-08-20T00:59:01.067Z,35.7
2022-08-20T01:00:07.206Z,36.5
2022-08-20T01:01:13.365Z,36.59
2022-08-20T01:02:19.524Z,36.59
2022-08-20T01:03:25.675Z,36.59
2022-08-20T01:04:31.829Z,36.59
2022-08-20T01:05:36.996Z,38.3
2022-08-20T01:06:43.148Z,38.9
2022-08-20T01:07:49.300Z,40.7
2022-08-20T01:08:55.452Z,39.3
2022-08-20T01:10:01.612Z,40.7
2022-08-20T01:11:07.750Z,40.5
2022-08-20T01:12:13.900Z,41.2
2022-08-20T01:13:20.053Z,40.9
2022-08-20T01:14:26.190Z,41
2022-08-20T01:15:32.367Z,41.7
2022-08-20T01:16:38.493Z,45.2
2022-08-20T01:17:44.645Z,43.8
2022-08-20T01:18:50.784Z,43.1
2022-08-20T01:19:55.956Z,47.3
2022-08-20T01:21:02.103Z,45.4
2022-08-20T01:22:08.253Z,44.9
2022-08-20T01:23:14.404Z,45.2
2022-08-20T01:24:20.554Z,49.9
2022-08-20T01:25:26.718Z,47.7
2022-08-20T01:26:32.865Z,47.3
2022-08-20T01:27:39.016Z,49.4
2022-08-20T01:28:45.166Z,46.7
2022-08-20T01:29:51.323Z,45.7
2022-08-20T01:30:57.484Z,50.8
2022-08-20T01:32:03.615Z,49.7
2022-08-20T01:33:09.754Z,50.5
2022-08-20T01:34:14.935Z,50.4
2022-08-20T01:35:21.074Z,51.5
2022-08-20T01:36:27.234Z,49.7
2022-08-20T01:37:33.392Z,52.6
2022-08-20T01:38:39.544Z,51.6
2022-08-20T01:39:45.701Z,54.3
2022-08-20T01:40:51.862Z,52.1
2022-08-20T01:41:58.012Z,55
2022-08-20T01:43:04.166Z,55
2022-08-20T01:44:10.331Z,55
2022-08-20T01:45:16.477Z,59.1
2022-08-20T01:46:22.629Z,57.1
2022-08-20T01:47:28.828Z,56.9
2022-08-20T01:48:33.947Z,60.9
2022-08-20T01:49:40.098Z,60.8
2022-08-20T01:50:46.261Z,60.8
2022-08-20T01:51:52.407Z,61.9
2022-08-20T01:52:58.556Z,64
2022-08-20T01:54:04.700Z,64.19
2022-08-20T01:55:10.845Z,67.69
2022-08-20T01:56:16.995Z,64.69
2022-08-20T01:57:23.147Z,64.9
2022-08-20T01:58:29.292Z,66.9
2022-08-20T01:59:35.440Z,67.8
2022-08-20T02:00:41.595Z,68.6
2022-08-20T02:01:47.755Z,68.69
2022-08-20T02:02:52.920Z,71.4
2022-08-20T02:03:59.078Z,71.1
2022-08-20T02:05:05.226Z,72.6
2022-08-20T02:06:11.369Z,75.3
2022-08-20T02:07:17.522Z,73.1
2022-08-20T02:08:23.671Z,76.9
2022-08-20T02:09:28.849Z,79.4
2022-08-20T02:10:35.004Z,76.9
2022-08-20T02:11:41.163Z,80.1
2022-08-20T02:12:47.319Z,86.5
2022-08-20T02:13:53.458Z,81.9
2022-08-20T02:14:59.611Z,84.5
2022-08-20T02:16:05.770Z,82.3
2022-08-20T02:17:11.916Z,86
2022-08-20T02:18:18.073Z,85.6
2022-08-20T02:19:24.236Z,86.8
2022-08-20T02:20:30.383Z,85.7
2022-08-20T02:21:36.547Z,83.7
2022-08-20T02:22:42.703Z,84.8
2022-08-20T02:23:47.870Z,87.2
2022-08-20T02:24:54.023Z,90.3
2022-08-20T02:26:00.194Z,91.2
2022-08-20T02:27:06.332Z,91.4
2022-08-20T02:28:12.495Z,86.8
2022-08-20T02:29:18.646Z,87.4
2022-08-20T02:30:24.802Z,92.9
2022-08-20T02:31:30.953Z,94.6
2022-08-20T02:32:37.117Z,88.1
2022-08-20T02:33:43.267Z,88.3
2022-08-20T02:34:49.424Z,87.8
2022-08-20T02:35:55.587Z,86.9
2022-08-20T02:37:01.716Z,90.4
2022-08-20T02:38:06.881Z,89.8
2022-08-20T02:39:13.041Z,86
2022-08-20T02:40:19.197Z,88
2022-08-20T02:41:25.348Z,86.7
2022-08-20T02:42:31.491Z,91.1
2022-08-20T02:43:37.638Z,92
2022-08-20T02:44:43.797Z,96.4
2022-08-20T02:45:49.989Z,92
2022-08-20T02:46:56.095Z,94.9
2022-08-20T02:48:02.240Z,93.2
2022-08-20T02:49:08.399Z,92
2022-08-20T02:50:14.548Z,92.5
2022-08-20T02:51:20.689Z,91.1
2022-08-20T02:52:25.859Z,96.9
2022-08-20T02:53:32.003Z,93.3
2022-08-20T02:54:38.152Z,93.5
2022-08-20T02:55:44.297Z,93.5
2022-08-20T02:56:50.451Z,97.1
2022-08-20T02:57:56.613Z,97.8
2022-08-20T02:59:02.762Z,101
2022-08-20T03:00:08.921Z,97
2022-08-20T03:01:15.068Z,100.8
2022-08-20T03:02:21.217Z,99.6
2022-08-20T03:03:27.383Z,104.4
2022-08-20T03:04:33.523Z,102.4
2022-08-20T03:05:39.674Z,101
2022-08-20T03:06:44.837Z,98.5
2022-08-20T03:07:50.983Z,108.2
2022-08-20T03:08:57.136Z,101.5
2022-08-20T03:10:03.298Z,106.4
2022-08-20T03:11:09.434Z,102
2022-08-20T03:12:15.581Z,98.1
2022-08-20T03:13:21.769Z,100.5
2022-08-20T03:14:27.891Z,101.6
2022-08-20T03:15:34.035Z,105
2022-08-20T03:16:40.186Z,101.8
2022-08-20T03:17:46.366Z,106.1
2022-08-20T03:18:52.505Z,103.3
2022-08-20T03:19:58.652Z,103.3
2022-08-20T03:21:03.811Z,99.4
2022-08-20T03:22:09.977Z,103.5
2022-08-20T03:23:16.122Z,105
2022-08-20T03:24:22.268Z,104.9
2022-08-20T03:25:28.428Z,104.6
2022-08-20T03:26:34.580Z,105.6
2022-08-20T03:27:40.717Z,102.8
2022-08-20T03:28:46.883Z,109.5
2022-08-20T03:29:53.023Z,104.3
2022-08-20T03:30:59.176Z,110.9
2022-08-20T03:32:05.330Z,108.7
2022-08-20T03:33:11.490Z,111.6
2022-08-20T03:34:17.638Z,111.6
2022-08-20T03:35:22.814Z,107.9
2022-08-20T03:36:28.961Z,114.4
2022-08-20T03:37:35.119Z,114.3
2022-08-20T03:38:41.274Z,117.6
2022-08-20T03:39:47.430Z,116.3
2022-08-20T03:40:53.588Z,118.3
2022-08-20T03:41:59.742Z,115.9
2022-08-20T03:43:05.902Z,115
2022-08-20T03:44:12.059Z,115.9
2022-08-20T03:45:18.213Z,120.4
2022-08-20T03:46:24.364Z,120.8
2022-08-20T03:47:30.527Z,120.2
2022-08-20T03:48:36.684Z,117.3
2022-08-20T03:49:41.850Z,117
2022-08-20T03:50:47.996Z,120.4
2022-08-20T03:51:54.155Z,112.6
2022-08-20T03:53:00.312Z,114.5
2022-08-20T03:54:06.466Z,113.7
2022-08-20T03:55:12.632Z,116.7
2022-08-20T03:56:18.774Z,109.8
2022-08-20T03:57:24.931Z,114
2022-08-20T03:58:31.092Z,113.4
2022-08-20T03:59:37.247Z,116
2022-08-20T04:00:43.409Z,113.8
2022-08-20T04:01:49.559Z,110.8
2022-08-20T04:02:55.712Z,115.5
2022-08-20T04:04:00.884Z,111.8
2022-08-20T04:05:07.043Z,112.2
2022-08-20T04:06:13.209Z,113.1
2022-08-20T04:07:19.363Z,110.6
2022-08-20T04:08:25.511Z,115
2022-08-20T04:09:31.695Z,107
2022-08-20T04:10:37.834Z,112.2
2022-08-20T04:11:43.990Z,110.9
2022-08-20T04:12:50.157Z,111.1
2022-08-20T04:13:56.304Z,110.2
2022-08-20T04:15:02.454Z,114.5
2022-08-20T04:16:08.626Z,113.4
2022-08-20T04:17:14.772Z,121.4
2022-08-20T04:18:20.574Z,116.7
2022-08-20T04:19:26.123Z,117.2
2022-08-20T04:20:32.260Z,117.7
2022-08-20T04:21:38.406Z,119.8
2022-08-20T04:22:44.561Z,121.5
2022-08-20T04:23:50.709Z,120
2022-08-20T04:24:56.860Z,116.7
2022-08-20T04:26:03.010Z,122.1
2022-08-20T04:27:09.171Z,116.1
2022-08-20T04:28:15.333Z,122.4
2022-08-20T04:29:21.472Z,122.3
2022-08-20T04:30:27.628Z,122.6
2022-08-20T04:31:33.781Z,120.2
2022-08-20T04:32:38.947Z,120.4
2022-08-20T04:33:45.101Z,119.6
2022-08-20T04:34:51.241Z,117.5
2022-08-20T04:35:57.404Z,119.6
2022-08-20T04:37:03.552Z,122.5
2022-08-20T04:38:09.702Z,119.6
2022-08-20T04:39:15.865Z,119.6
2022-08-20T04:40:22.010Z,115.9
2022-08-20T04:41:28.166Z,117.3
2022-08-20T04:42:34.318Z,112
2022-08-20T04:43:40.474Z,110
2022-08-20T04:44:46.625Z,119.7
2022-08-20T04:45:52.793Z,114.9
2022-08-20T04:46:57.959Z,113.4
2022-08-20T04:48:04.118Z,119.6
2022-08-20T04:49:10.263Z,118.3
2022-08-20T04:50:16.414Z,110.3
2022-08-20T04:51:22.582Z,116.6
2022-08-20T04:52:28.727Z,113.3
2022-08-20T04:53:34.876Z,112.7
2022-08-20T04:54:41.021Z,112
2022-08-20T04:55:47.182Z,113.3
2022-08-20T04:56:53.337Z,109.6
2022-08-20T04:57:59.479Z,109.4
2022-08-20T04:59:05.627Z,111.6
2022-08-20T05:00:11.786Z,108.5
2022-08-20T05:01:16.959Z,107.8
2022-08-20T05:02:23.117Z,105
2022-08-20T05:03:29.284Z,106.5
2022-08-20T05:04:35.419Z,107.2
2022-08-20T05:05:41.573Z,108
2022-08-20T05:06:47.723Z,111.1
2022-08-20T05:07:53.876Z,107.8
2022-08-20T05:09:00.034Z,112.3
2022-08-20T05:10:06.190Z,105.8
2022-08-20T05:11:12.332Z,107.7
2022-08-20T05:12:18.484Z,104
2022-08-20T05:13:24.643Z,104.2
2022-08-20T05:14:30.776Z,107.9
2022-08-20T05:15:35.990Z,105.3
2022-08-20T05:16:42.107Z,104.1
2022-08-20T05:17:48.252Z,110.2
2022-08-20T05:18:54.411Z,108.9
2022-08-20T05:20:00.552Z,104.9
2022-08-20T05:21:06.691Z,99.1
2022-08-20T05:22:12.853Z,100
2022-08-20T05:23:19.001Z,100.2
2022-08-20T05:24:25.153Z,102.7
2022-08-20T05:25:31.295Z,96.6
2022-08-20T05:26:37.441Z,96.6
2022-08-20T05:27:43.589Z,95
2022-08-20T05:28:49.744Z,92.1
2022-08-20T05:29:54.911Z,90.6
2022-08-20T05:31:01.060Z,94.1
2022-08-20T05:32:07.227Z,90.4
2022-08-20T05:33:13.381Z,91
2022-08-20T05:34:19.537Z,88.4
2022-08-20T05:35:25.682Z,85.6
2022-08-20T05:36:31.834Z,86.7
2022-08-20T05:37:37.979Z,87.3
2022-08-20T05:38:44.123Z,82.5
2022-08-20T05:39:50.267Z,80.4
2022-08-20T05:40:56.413Z,82.7
2022-08-20T05:42:02.567Z,79.5
2022-08-20T05:43:08.717Z,77.19
2022-08-20T05:44:13.868Z,76.3
2022-08-20T05:45:20.025Z,75.8
2022-08-20T05:46:26.172Z,75.19
2022-08-20T05:47:32.307Z,77.3
2022-08-20T05:48:38.442Z,75.1
2022-08-20T05:49:44.597Z,77.69
2022-08-20T05:50:49.743Z,77.3
2022-08-20T05:51:55.882Z,75.19
2022-08-20T05:53:02.026Z,72
2022-08-20T05:54:08.163Z,72.8
2022-08-20T05:55:14.291Z,74
2022-08-20T05:56:20.443Z,74.3
2022-08-20T05:57:26.568Z,73.9
2022-08-20T05:58:32.714Z,76.1
2022-08-20T05:59:38.848Z,71.6
2022-08-20T06:00:44.986Z,73.9
2022-08-20T06:01:51.126Z,68.69
2022-08-20T06:02:57.269Z,67.1
2022-08-20T06:04:03.395Z,68.69
2022-08-20T06:05:09.530Z,69.5
2022-08-20T06:06:14.686Z,72.6
2022-08-20T06:07:20.833Z,67.4
2022-08-20T06:08:26.948Z,69.9
2022-08-20T06:09:33.082Z,70.1
2022-08-20T06:10:39.215Z,65.8
2022-08-20T06:11:45.347Z,70
2022-08-20T06:12:51.478Z,66.3
2022-08-20T06:13:57.612Z,67.5
2022-08-20T06:15:03.758Z,67.8
2022-08-20T06:16:09.886Z,67.9
2022-08-20T06:17:16.026Z,67.1
2022-08-20T06:18:22.154Z,65.4
2022-08-20T06:19:28.303Z,66
2022-08-20T06:20:33.430Z,65.8
2022-08-20T06:21:39.560Z,66.6
2022-08-20T06:22:45.681Z,65.5
2022-08-20T06:23:51.804Z,64.6
2022-08-20T06:24:57.929Z,64.4
2022-08-20T06:26:04.055Z,63.1
2022-08-20T06:27:10.185Z,61.3
2022-08-20T06:28:16.319Z,66
2022-08-20T06:29:22.429Z,64.3
2022-08-20T06:30:28.559Z,62.8
2022-08-20T06:31:34.688Z,62.5
2022-08-20T06:32:40.818Z,65
2022-08-20T06:33:46.936Z,66.3
2022-08-20T06:34:53.059Z,64.1
2022-08-20T06:35:58.201Z,61.8
2022-08-20T06:37:04.334Z,61.6
2022-08-20T06:38:10.459Z,61.2
2022-08-20T06:39:16.584Z,63.5
2022-08-20T06:40:22.703Z,61.1
2022-08-20T06:41:28.836Z,60.6
2022-08-20T06:42:34.961Z,63.4
2022-08-20T06:43:41.092Z,66.69
2022-08-20T06:44:47.225Z,64.8
2022-08-20T06:45:53.354Z,62.2
2022-08-20T06:46:59.474Z,62.7
2022-08-20T06:48:05.607Z,61.4
2022-08-20T06:49:11.743Z,60.8
2022-08-20T06:50:17.868Z,62.8
2022-08-20T06:51:23.996Z,62.5
2022-08-20T06:52:30.107Z,61.4
2022-08-20T06:53:36.240Z,65
2022-08-20T06:54:42.359Z,63.7
2022-08-20T06:55:48.484Z,63.1
2022-08-20T06:56:54.611Z,64.8
2022-08-20T06:58:00.740Z,62.9
2022-08-20T06:59:06.858Z,62.3
2022-08-20T07:00:12.970Z,59.6
2022-08-20T07:01:19.104Z,62
2022-08-20T07:02:25.229Z,61.9
2022-08-20T07:03:31.352Z,61.9
2022-08-20T07:04:37.473Z,59.1
2022-08-20T07:05:43.598Z,62
2022-08-20T07:06:49.729Z,61.8
2022-08-20T07:07:55.864Z,63.6
2022-08-20T07:09:01.986Z,63.6
2022-08-20T07:10:08.101Z,62.4
2022-08-20T07:11:14.233Z,61.3
2022-08-20T07:12:20.353Z,65.9
2022-08-20T07:13:26.475Z,61.4
2022-08-20T07:14:32.592Z,63.1
2022-08-20T07:15:38.718Z,58.6
2022-08-20T07:16:44.929Z,57.9
2022-08-20T07:17:50.136Z,62.3
2022-08-20T07:18:56.301Z,59.6
2022-08-20T07:20:02.390Z,62.3
2022-08-20T07:21:08.502Z,64.1
2022-08-20T07:22:14.629Z,61.7
2022-08-20T07:23:20.750Z,59.6
2022-08-20T07:24:26.879Z,57.9
2022-08-20T07:25:33.013Z,61.5
2022-08-20T07:26:39.125Z,60.3
2022-08-20T07:27:45.256Z,56.5
2022-08-20T07:28:51.381Z,59.7
2022-08-20T07:29:57.503Z,59.7
2022-08-20T07:31:02.650Z,56.3
2022-08-20T07:32:08.775Z,55.3
2022-08-20T07:33:14.905Z,55.2
2022-08-20T07:34:21.012Z,55
2022-08-20T07:35:27.134Z,53.2
2022-08-20T07:36:33.259Z,51.7
2022-08-20T07:37:39.387Z,56
2022-08-20T07:38:45.503Z,52
2022-08-20T07:39:51.629Z,54
2022-08-20T07:40:57.747Z,51
2022-08-20T07:42:03.871Z,53.1
2022-08-20T07:43:09.995Z,52.9
2022-08-20T07:44:16.127Z,48.3
2022-08-20T07:45:22.246Z,49.2
2022-08-20T07:46:28.419Z,51.9
2022-08-20T07:47:34.498Z,50.1
2022-08-20T07:48:40.632Z,51.1
2022-08-20T07:49:46.741Z,48.7
2022-08-20T07:50:52.867Z,50.8
2022-08-20T07:51:58.998Z,49.6
2022-08-20T07:53:05.110Z,51.5
2022-08-20T07:54:11.250Z,54
2022-08-20T07:55:16.429Z,53.2
2022-08-20T07:56:22.515Z,52.5
2022-08-20T07:57:28.643Z,51.7
2022-08-20T07:58:34.751Z,48.7
2022-08-20T07:59:40.887Z,48.6
2022-08-20T08:00:46.994Z,48.6
2022-08-20T08:01:53.121Z,50.7
2022-08-20T08:02:59.244Z,49
2022-08-20T08:04:05.365Z,46.8
2022-08-20T08:05:11.499Z,43.2
2022-08-20T08:06:17.603Z,45.4
2022-08-20T08:07:23.732Z,44.7
2022-08-20T08:08:29.867Z,43.8
2022-08-20T08:09:35.969Z,43.8
2022-08-20T08:10:42.095Z,43.8
2022-08-20T08:11:48.204Z,39.9
2022-08-20T08:12:54.330Z,40.8
2022-08-20T08:14:00.435Z,41.4
2022-08-20T08:15:06.543Z,40.9
2022-08-20T08:16:12.661Z,39.59
2022-08-20T08:17:18.780Z,40.9
2022-08-20T08:18:24.912Z,37.2
2022-08-20T08:19:31.011Z,37.9
2022-08-20T08:20:37.119Z,38.09
2022-08-20T08:21:43.235Z,37
2022-08-20T08:22:49.430Z,36.8
2022-08-20T08:23:54.608Z,32.9
2022-08-20T08:25:00.718Z,34.5
2022-08-20T08:26:06.830Z,35.4
2022-08-20T08:27:12.946Z,33.3
2022-08-20T08:28:19.050Z,33.7
2022-08-20T08:29:25.157Z,32.9
2022-08-20T08:30:31.252Z,34.9
2022-08-20T08:31:37.363Z,33.59
2022-08-20T08:32:43.478Z,32.8
2022-08-20T08:33:49.572Z,31.6
2022-08-20T08:34:55.673Z,33.9
2022-08-20T08:36:01.769Z,31.1
2022-08-20T08:37:07.872Z,34.09
2022-08-20T08:38:13.961Z,32.2
2022-08-20T08:39:20.059Z,33
2022-08-20T08:40:26.167Z,32.7
2022-08-20T08:41:32.259Z,32.09
2022-08-20T08:42:38.364Z,32.5
2022-08-20T08:43:44.462Z,31.2
2022-08-20T08:44:50.562Z,31.1
2022-08-20T08:45:56.658Z,32.8
2022-08-20T08:47:02.767Z,32.8
2022-08-20T08:48:08.866Z,32.8
2022-08-20T08:49:14.954Z,32.8
2022-08-20T08:50:21.083Z,33.3
2022-08-20T08:51:27.230Z,31
2022-08-20T08:52:33.417Z,31
2022-08-20T08:53:38.593Z,32.59
2022-08-20T08:54:44.696Z,30.1
2022-08-20T08:55:50.794Z,31.3
2022-08-20T08:56:56.885Z,29.7
2022-08-20T08:58:02.993Z,29.2
2022-08-20T08:59:09.089Z,30.7
2022-08-20T09:00:15.201Z,30
2022-08-20T09:01:21.269Z,30.2
2022-08-20T09:02:27.366Z,28.7
2022-08-20T09:03:33.471Z,30.7
2022-08-20T09:04:39.553Z,30.1
2022-08-20T09:05:45.653Z,30.1
2022-08-20T09:06:51.752Z,30.8
2022-08-20T09:07:57.833Z,30.4
2022-08-20T09:09:03.926Z,28.9
2022-08-20T09:10:10.023Z,28.1
2022-08-20T09:11:16.131Z,32.4
2022-08-20T09:12:22.230Z,29.3
2022-08-20T09:13:28.329Z,31.6
2022-08-20T09:14:34.432Z,29
2022-08-20T09:15:40.532Z,28.6
2022-08-20T09:16:46.640Z,30.5
2022-08-20T09:17:52.727Z,30.7
2022-08-20T09:18:58.826Z,31
2022-08-20T09:20:04.925Z,33.09
2022-08-20T09:21:11.111Z,30.6
2022-08-20T09:22:17.281Z,33.3
2022-08-20T09:23:23.458Z,30.4
2022-08-20T09:24:28.630Z,31.5
2022-08-20T09:25:34.743Z,31.5
2022-08-20T09:26:40.838Z,32.09
2022-08-20T09:27:46.935Z,32
2022-08-20T09:28:53.041Z,31.1
2022-08-20T09:29:59.144Z,35.5
2022-08-20T09:31:05.244Z,33.59
2022-08-20T09:32:11.338Z,34
2022-08-20T09:33:17.452Z,32.4
2022-08-20T09:34:23.545Z,33.09
2022-08-20T09:35:29.671Z,31.4
2022-08-20T09:36:35.750Z,34.09
2022-08-20T09:37:41.855Z,32.9
2022-08-20T09:38:47.981Z,35.2
2022-08-20T09:39:54.068Z,35.59
2022-08-20T09:41:00.189Z,34
2022-08-20T09:42:06.284Z,34.2
2022-08-20T09:43:12.366Z,35.9
2022-08-20T09:44:18.481Z,34
2022-08-20T09:45:24.584Z,33.7
2022-08-20T09:46:30.681Z,32.5
2022-08-20T09:47:36.799Z,34.09
2022-08-20T09:48:42.920Z,33.59
2022-08-20T09:49:49.008Z,34.4
2022-08-20T09:50:55.103Z,33.2
2022-08-20T09:52:01.302Z,32.2
2022-08-20T09:53:06.476Z,36.5
2022-08-20T09:54:12.589Z,34
2022-08-20T09:55:18.693Z,32.9
2022-08-20T09:56:24.811Z,33.8
2022-08-20T09:57:30.903Z,33.9
2022-08-20T09:58:37.293Z,34.5
2022-08-20T09:59:43.119Z,34
2022-08-20T10:00:49.230Z,34.4
2022-08-20T10:01:55.344Z,32.8
2022-08-20T10:03:01.458Z,36.2
2022-08-20T10:04:07.571Z,33.8
2022-08-20T10:05:13.685Z,35
2022-08-20T10:06:19.830Z,34.09
2022-08-20T10:07:25.894Z,36.8
2022-08-20T10:08:32.021Z,70.19
2022-08-20T10:09:38.126Z,46.1
2022-08-20T10:10:44.231Z,37.8
2022-08-20T10:11:50.338Z,155.89
2022-08-20T10:12:56.454Z,54.7
2022-08-20T10:14:02.566Z,32.5
2022-08-20T10:15:08.693Z,34.59
2022-08-20T10:16:14.785Z,302.6
2022-08-20T10:17:20.886Z,78.69
2022-08-20T10:18:27.007Z,90.7
2022-08-20T10:19:33.116Z,37.3
2022-08-20T10:20:39.313Z,33.8
2022-08-20T10:21:45.506Z,77.3
2022-08-20T10:22:51.685Z,35
2022-08-20T10:23:57.861Z,32.09
2022-08-20T10:25:04.073Z,33.4
2022-08-20T10:26:09.261Z,32
2022-08-20T10:27:15.374Z,33.2
2022-08-20T10:28:21.490Z,32.4
2022-08-20T10:29:27.600Z,34.09
2022-08-20T10:30:33.718Z,35.2
2022-08-20T10:31:39.825Z,51.2
2022-08-20T10:32:45.935Z,33.7
2022-08-20T10:33:52.044Z,32.2
2022-08-20T10:34:58.156Z,43.4
2022-08-20T10:36:04.258Z,36.5
2022-08-20T10:37:10.378Z,39.7
2022-08-20T10:38:16.478Z,45.3
2022-08-20T10:39:22.595Z,-303.26
2022-08-20T10:40:28.708Z,259.7
2022-08-20T10:41:34.827Z,42.4
2022-08-20T10:42:40.933Z,34.2
2022-08-20T10:43:47.048Z,33.8
2022-08-20T10:44:53.163Z,36.9
2022-08-20T10:45:59.291Z,89.6
2022-08-20T10:47:05.396Z,40.5
2022-08-20T10:48:11.517Z,32.4
2022-08-20T10:49:17.611Z,31.7
2022-08-20T10:50:23.721Z,33.3
2022-08-20T10:51:29.835Z,30.6
2022-08-20T10:52:35.961Z,31.3
2022-08-20T10:53:42.154Z,36.59
2022-08-20T10:54:47.338Z,34.4
2022-08-20T10:55:53.469Z,34.5
2022-08-20T10:56:59.567Z,40.8
2022-08-20T10:58:05.679Z,35.5
2022-08-20T10:59:11.781Z,36.8
2022-08-20T11:00:17.893Z,30.8
2022-08-20T11:01:23.995Z,32.4
2022-08-20T11:02:30.107Z,30.8
2022-08-20T11:03:36.220Z,29.5
2022-08-20T11:04:42.326Z,28.4
2022-08-20T11:05:48.424Z,29.5
2022-08-20T11:06:54.532Z,31.7
2022-08-20T11:08:00.643Z,25.7
2022-08-20T11:09:06.755Z,29.1
2022-08-20T11:10:12.871Z,30.2
2022-08-20T11:11:18.979Z,25.2
2022-08-20T11:12:25.080Z,26.6
2022-08-20T11:13:31.188Z,24.8
2022-08-20T11:14:37.299Z,23
2022-08-20T11:15:43.418Z,23.1
2022-08-20T11:16:49.512Z,19.7
2022-08-20T11:17:55.614Z,18.9
2022-08-20T11:19:01.722Z,19.79
2022-08-20T11:20:07.830Z,19.6
2022-08-20T11:21:13.940Z,18.6
2022-08-20T11:22:20.117Z,18.9
2022-08-20T11:23:25.305Z,18.1
2022-08-20T11:24:31.408Z,17.7
2022-08-20T11:25:37.541Z,17.79
2022-08-20T11:26:43.619Z,16.7
2022-08-20T11:27:49.725Z,17.1
2022-08-20T11:28:55.825Z,17
2022-08-20T11:30:01.931Z,16.29
2022-08-20T11:31:08.046Z,16.5
2022-08-20T11:32:14.141Z,16.2
2022-08-20T11:33:20.249Z,16.5
2022-08-20T11:34:26.359Z,16.2
2022-08-20T11:35:32.452Z,16.5
2022-08-20T11:36:38.560Z,17.5
2022-08-20T11:37:44.658Z,16.79
2022-08-20T11:38:50.775Z,16.4
2022-08-20T11:39:56.880Z,16.6
2022-08-20T11:41:02.973Z,21.9
2022-08-20T11:42:09.082Z,20.6
2022-08-20T11:43:15.190Z,20.1
2022-08-20T11:44:21.287Z,16.7
2022-08-20T11:45:27.390Z,17.1
2022-08-20T11:46:33.488Z,16.29
2022-08-20T11:47:39.589Z,16.79
2022-08-20T11:48:45.677Z,16.2
2022-08-20T11:49:51.777Z,18.4
2022-08-20T11:50:57.976Z,15.3
2022-08-20T11:52:03.134Z,14.5
2022-08-20T11:53:09.222Z,15.2
2022-08-20T11:54:15.321Z,15.5
2022-08-20T11:55:21.417Z,16.4
2022-08-20T11:56:27.491Z,15.7
2022-08-20T11:57:33.593Z,15.6
2022-08-20T11:58:39.677Z,14.2
2022-08-20T11:59:45.769Z,14.4
2022-08-20T12:00:51.865Z,15.3
2022-08-20T12:01:57.946Z,15.2
2022-08-20T12:03:04.043Z,15.2
2022-08-20T12:04:10.128Z,15.3
2022-08-20T12:05:16.266Z,16
2022-08-20T12:06:22.308Z,14.2
2022-08-20T12:07:28.394Z,16.29
2022-08-20T12:08:34.477Z,16.5
2022-08-20T12:09:40.575Z,14.9
2022-08-20T12:10:46.654Z,16.4
2022-08-20T12:11:52.752Z,16.1
2022-08-20T12:12:58.837Z,15.1
2022-08-20T12:14:04.927Z,16.2
2022-08-20T12:15:11.012Z,15.6
2022-08-20T12:16:17.100Z,17
2022-08-20T12:17:23.193Z,14.7
2022-08-20T12:18:29.290Z,15.1
2022-08-20T12:19:35.454Z,15.5
2022-08-20T12:20:41.607Z,15.3
2022-08-20T12:21:47.774Z,15.1
2022-08-20T12:22:53.931Z,17.5
2022-08-20T12:24:00.091Z,16.2
2022-08-20T12:25:06.245Z,15.1
2022-08-20T12:26:12.401Z,14.1
2022-08-20T12:27:18.561Z,14.4
2022-08-20T12:28:24.736Z,14.9
2022-08-20T12:29:30.872Z,14.6
2022-08-20T12:30:37.037Z,15.3
2022-08-20T12:31:43.208Z,15.4
2022-08-20T12:32:49.344Z,15.1
2022-08-20T12:33:55.619Z,15.3
2022-08-20T12:35:00.856Z,15.3
2022-08-20T12:36:06.940Z,13.8
2022-08-20T12:37:13.022Z,15.9
2022-08-20T12:38:19.102Z,16
2022-08-20T12:39:25.187Z,14
2022-08-20T12:40:31.271Z,15.2
2022-08-20T12:41:37.347Z,15
2022-08-20T12:42:43.426Z,16
2022-08-20T12:43:49.511Z,15.3
2022-08-20T12:44:55.595Z,15.6
2022-08-20T12:46:01.682Z,15
2022-08-20T12:47:07.745Z,15
2022-08-20T12:48:13.844Z,15.6
2022-08-20T12:49:19.910Z,16.7
2022-08-20T12:50:25.999Z,14.5
2022-08-20T12:51:32.081Z,15.8
2022-08-20T12:52:38.156Z,16.29
2022-08-20T12:53:44.234Z,14.3
2022-08-20T12:54:50.320Z,18.29
2022-08-20T12:55:56.402Z,66.8
2022-08-20T12:57:02.483Z,22.3
2022-08-20T12:58:08.561Z,17.79
2022-08-20T12:59:14.645Z,19.79
2022-08-20T13:00:20.719Z,15.5
2022-08-20T13:01:26.805Z,15.8
2022-08-20T13:02:32.963Z,13.5
2022-08-20T13:03:39.127Z,12.8
2022-08-20T13:04:45.272Z,13.7
2022-08-20T13:05:51.425Z,14.3
2022-08-20T13:06:57.579Z,14.2
2022-08-20T13:08:03.735Z,12.8
2022-08-20T13:09:09.891Z,19.5
2022-08-20T13:10:16.032Z,16.4
2022-08-20T13:11:22.176Z,14.1
2022-08-20T13:12:28.339Z,15.2
2022-08-20T13:13:34.486Z,15
2022-08-20T13:14:40.632Z,16
2022-08-20T13:15:46.790Z,14.2
2022-08-20T13:16:53.068Z,16.2
2022-08-20T13:17:58.293Z,14
2022-08-20T13:19:04.366Z,14.1
2022-08-20T13:20:10.435Z,15.8
2022-08-20T13:21:16.503Z,13.5
2022-08-20T13:22:22.570Z,13.5
2022-08-20T13:23:28.647Z,13.3
2022-08-20T13:24:34.719Z,14.2
2022-08-20T13:25:40.796Z,12.4
2022-08-20T13:26:46.868Z,13.8
2022-08-20T13:27:52.938Z,13.7
2022-08-20T13:28:59.016Z,15.7
2022-08-20T13:30:05.097Z,13.1
2022-08-20T13:31:11.173Z,13.2
2022-08-20T13:32:17.253Z,14.9
2022-08-20T13:33:23.338Z,13.3
2022-08-20T13:34:29.406Z,12.8
2022-08-20T13:35:35.485Z,13.7
2022-08-20T13:36:41.567Z,13.5
2022-08-20T13:37:47.643Z,13.7
2022-08-20T13:38:53.715Z,14.6
2022-08-20T13:39:59.788Z,13.2
2022-08-20T13:41:05.878Z,14.2
2022-08-20T13:42:11.945Z,13.1
2022-08-20T13:43:18.016Z,12.4
2022-08-20T13:44:24.110Z,14.3
2022-08-20T13:45:30.267Z,13.8
2022-08-20T13:46:36.433Z,13.9
2022-08-20T13:47:42.592Z,15.1
2022-08-20T13:48:48.758Z,12.6
2022-08-20T13:49:54.911Z,13.6
2022-08-20T13:51:01.065Z,13
2022-08-20T13:52:07.234Z,12.6
2022-08-20T13:53:13.381Z,13.5
2022-08-20T13:54:19.545Z,12.8
2022-08-20T13:55:25.695Z,13.4
2022-08-20T13:56:31.851Z,13.4
2022-08-20T13:57:38.008Z,13.2
2022-08-20T13:58:44.153Z,14.4
2022-08-20T13:59:50.439Z,12.6
2022-08-20T14:00:55.680Z,13.7
2022-08-20T14:02:01.740Z,13.5
2022-08-20T14:03:07.825Z,13.2
2022-08-20T14:04:13.887Z,14
2022-08-20T14:05:19.976Z,12
2022-08-20T14:06:26.058Z,14.2
2022-08-20T14:07:32.127Z,13.3
2022-08-20T14:08:38.210Z,13.8
2022-08-20T14:09:44.292Z,13.7
2022-08-20T14:10:50.370Z,13.8
2022-08-20T14:11:56.459Z,13.9
2022-08-20T14:13:02.541Z,13.2
2022-08-20T14:14:08.619Z,13.6
2022-08-20T14:15:14.709Z,13.2
2022-08-20T14:16:20.784Z,13
2022-08-20T14:17:26.873Z,13.7
2022-08-20T14:18:32.955Z,12.9
2022-08-20T14:19:39.042Z,13.4
2022-08-20T14:20:45.123Z,14
2022-08-20T14:21:51.214Z,13.2
2022-08-20T14:22:57.288Z,13.9
2022-08-20T14:24:03.371Z,12.9
2022-08-20T14:25:09.445Z,14.3
2022-08-20T14:26:15.530Z,14.2
2022-08-20T14:27:21.613Z,13.2
2022-08-20T14:28:27.764Z,15.3
2022-08-20T14:29:33.923Z,13.7
2022-08-20T14:30:40.073Z,13.4
2022-08-20T14:31:46.233Z,12.7
2022-08-20T14:32:52.393Z,14.6
2022-08-20T14:33:58.556Z,13.3
2022-08-20T14:35:04.710Z,13.3
2022-08-20T14:36:10.860Z,13.2
2022-08-20T14:37:17.028Z,13.4
2022-08-20T14:38:23.192Z,13.6
2022-08-20T14:39:29.351Z,14.7